createdAt,value
2019-01-20T00:01:26.371Z,39.87
2019-01-20T00:03:55.797Z,39.60
2019-01-20T00:06:24.707Z,39.84
2019-01-20T00:08:53.390Z,39.96
2019-01-20T00:11:21.864Z,39.73
2019-01-20T00:13:50.263Z,39.41
2019-01-20T00:16:19.793Z,39.41
2019-01-20T00:18:47.851Z,39.10
2019-01-20T00:21:15.713Z,39.09
2019-01-20T00:23:43.702Z,39.09
2019-01-20T00:26:11.618Z,39.45
2019-01-20T00:28:40.046Z,39.64
2019-01-20T00:31:08.844Z,39.37
2019-01-20T00:33:38.104Z,40.55
2019-01-20T00:36:06.830Z,40.01
2019-01-20T00:38:35.817Z,40.01
2019-01-20T00:41:03.817Z,40.33
2019-01-20T00:43:31.876Z,39.62
2019-01-20T00:45:59.828Z,39.60
2019-01-20T00:48:28.359Z,39.60
2019-01-20T00:50:57.836Z,39.19
2019-01-20T00:53:25.921Z,38.59
2019-01-20T00:55:54.531Z,38.59
2019-01-20T00:58:23.832Z,38.61
2019-01-20T01:00:51.865Z,38.78
2019-01-20T01:03:19.875Z,39.31
2019-01-20T01:05:48.842Z,39.21
2019-01-20T01:08:16.924Z,39.21
2019-01-20T01:10:46.562Z,39.25
2019-01-20T01:13:15.846Z,39.25
2019-01-20T01:15:43.991Z,39.74
2019-01-20T01:18:14.377Z,39.43
2019-01-20T01:20:43.761Z,39.43
2019-01-20T01:23:12.501Z,39.90
2019-01-20T01:25:41.813Z,39.66
2019-01-20T01:28:10.265Z,39.66
2019-01-20T01:30:39.358Z,39.41
2019-01-20T01:33:08.377Z,39.41
2019-01-20T01:36:32.704Z,39.96
2019-01-20T01:39:01.357Z,39.96
2019-01-20T01:41:30.841Z,39.75
2019-01-20T01:44:00.185Z,39.93
2019-01-20T01:46:28.904Z,39.92
2019-01-20T01:48:57.351Z,40.03
2019-01-20T01:51:25.979Z,39.76
2019-01-20T01:53:56.039Z,39.76
2019-01-20T01:56:25.330Z,39.38
2019-01-20T01:58:55.021Z,39.38
2019-01-20T02:04:01.803Z,38.80
2019-01-20T02:06:29.839Z,39.23
2019-01-20T02:08:57.839Z,39.27
2019-01-20T02:13:10.410Z,38.78
2019-01-20T02:15:38.869Z,39.46
2019-01-20T02:18:07.365Z,39.37
2019-01-20T02:20:35.817Z,39.37
2019-01-20T02:23:04.369Z,39.66
2019-01-20T02:25:32.859Z,39.62
2019-01-20T02:28:00.875Z,39.85
2019-01-20T02:30:29.923Z,40.42
2019-01-20T02:32:58.840Z,39.82
2019-01-20T02:35:27.390Z,39.82
2019-01-20T02:37:56.542Z,39.88
2019-01-20T02:40:25.341Z,39.98
2019-01-20T02:45:27.648Z,38.70
2019-01-20T02:47:56.813Z,38.70
2019-01-20T02:50:24.754Z,38.87
2019-01-20T02:52:53.829Z,38.98
2019-01-20T02:55:22.785Z,38.75
2019-01-20T03:07:49.312Z,39.92
2019-01-20T03:10:16.852Z,40.15
2019-01-20T03:12:45.430Z,39.77
2019-01-20T03:16:53.878Z,40.05
2019-01-20T03:19:21.890Z,40.05
2019-01-20T03:21:49.887Z,40.05
2019-01-20T03:24:18.589Z,39.99
2019-01-20T03:26:46.899Z,39.99
2019-01-20T03:29:15.835Z,39.98
2019-01-20T03:31:44.845Z,40.15
2019-01-20T03:34:14.751Z,39.71
2019-01-20T03:36:42.847Z,39.71
2019-01-20T03:39:11.843Z,39.00
2019-01-20T03:41:39.869Z,39.00
2019-01-20T03:52:47.892Z,40.12
2019-01-20T03:55:17.866Z,39.55
2019-01-20T03:57:47.837Z,39.21
2019-01-20T04:00:18.275Z,39.21
2019-01-20T04:02:52.490Z,38.66
2019-01-20T04:05:20.878Z,38.92
2019-01-20T04:07:49.885Z,39.52
2019-01-20T04:10:18.341Z,39.46
2019-01-20T04:12:46.894Z,39.46
2019-01-20T04:15:15.660Z,39.58
2019-01-20T04:18:16.397Z,39.96
2019-01-20T04:20:44.892Z,39.84
2019-01-20T04:23:12.896Z,39.14
2019-01-20T04:25:41.355Z,38.84
2019-01-20T04:28:10.336Z,38.84
2019-01-20T04:30:39.818Z,38.67
2019-01-20T04:36:59.063Z,39.89
2019-01-20T04:39:28.825Z,39.37
2019-01-20T04:41:56.889Z,39.37
2019-01-20T04:44:25.799Z,38.82
2019-01-20T04:46:54.881Z,38.82
2019-01-20T04:49:22.889Z,38.78
2019-01-20T04:51:51.790Z,38.10
2019-01-20T04:54:19.852Z,38.10
2019-01-20T04:58:40.035Z,38.10
2019-01-20T05:01:08.884Z,38.02
2019-01-20T05:03:36.883Z,38.38
2019-01-20T05:06:05.808Z,38.92
2019-01-20T05:08:34.352Z,38.92
2019-01-20T05:11:03.825Z,39.12
2019-01-20T05:13:32.862Z,39.12
2019-01-20T05:16:00.839Z,39.12
2019-01-20T05:18:29.786Z,39.19
2019-01-20T05:20:58.842Z,39.19
2019-01-20T05:23:26.899Z,39.01
2019-01-20T05:25:54.897Z,39.34
2019-01-20T05:28:23.842Z,38.81
2019-01-20T05:30:51.840Z,38.81
2019-01-20T05:33:19.871Z,38.75
2019-01-20T05:35:48.357Z,38.11
2019-01-20T05:38:18.673Z,38.11
2019-01-20T05:40:48.363Z,39.28
2019-01-20T05:43:18.832Z,38.39
2019-01-20T05:45:46.909Z,38.42
2019-01-20T05:48:15.763Z,38.91
2019-01-20T05:50:43.864Z,38.91
2019-01-20T05:53:11.932Z,38.88
2019-01-20T05:55:40.856Z,38.85
2019-01-20T05:58:09.858Z,38.85
2019-01-20T06:00:37.896Z,38.90
2019-01-20T06:03:06.849Z,38.86
2019-01-20T06:05:35.988Z,38.86
2019-01-20T06:08:05.389Z,38.49
2019-01-20T06:10:34.394Z,38.49
2019-01-20T06:13:03.847Z,38.48
2019-01-20T06:15:31.940Z,37.99
2019-01-20T06:18:00.901Z,38.03
2019-01-20T06:20:30.770Z,37.66
2019-01-20T06:22:58.862Z,37.66
2019-01-20T06:25:26.911Z,38.58
2019-01-20T06:27:54.885Z,38.94
2019-01-20T06:30:32.675Z,38.62
2019-01-20T06:33:01.674Z,38.62
2019-01-20T06:35:30.504Z,38.54
2019-01-20T06:37:59.796Z,38.57
2019-01-20T06:40:27.936Z,38.84
2019-01-20T06:46:46.666Z,38.83
2019-01-20T06:49:15.625Z,38.83
2019-01-20T06:51:45.762Z,38.68
2019-01-20T06:54:14.637Z,38.91
2019-01-20T06:56:44.838Z,38.61
2019-01-20T06:59:14.862Z,38.74
2019-01-20T07:01:43.822Z,38.68
2019-01-20T07:04:12.810Z,38.68
2019-01-20T07:06:45.348Z,38.20
2019-01-20T07:09:15.824Z,38.20
2019-01-20T07:11:44.842Z,37.91
2019-01-20T07:14:13.764Z,37.54
2019-01-20T07:16:42.939Z,38.27
2019-01-20T07:19:12.483Z,39.06
2019-01-20T07:21:41.835Z,39.06
2019-01-20T07:24:11.726Z,36.67
2019-01-20T07:26:41.852Z,37.46
2019-01-20T07:29:10.636Z,37.24
2019-01-20T07:31:39.820Z,37.56
2019-01-20T07:34:09.840Z,37.56
2019-01-20T07:36:38.961Z,37.64
2019-01-20T07:39:09.814Z,37.02
2019-01-20T07:41:38.821Z,37.02
2019-01-20T07:44:07.833Z,37.52
2019-01-20T07:46:37.835Z,37.51
2019-01-20T07:49:13.949Z,37.61
2019-01-20T07:51:43.750Z,37.98
2019-01-20T07:56:12.762Z,37.20
2019-01-20T07:58:40.829Z,37.40
2019-01-20T08:01:08.860Z,38.29
2019-01-20T08:03:37.827Z,38.25
2019-01-20T08:06:05.839Z,38.25
2019-01-20T08:08:33.723Z,38.15
2019-01-20T08:11:03.468Z,38.08
2019-01-20T08:13:31.789Z,38.30
2019-01-20T08:15:59.874Z,38.28
2019-01-20T08:18:27.850Z,38.12
2019-01-20T08:20:55.799Z,38.12
2019-01-20T08:25:43.756Z,38.62
2019-01-20T08:28:11.842Z,38.86
2019-01-20T08:30:40.636Z,38.14
2019-01-20T08:36:53.639Z,38.28
2019-01-20T08:39:22.839Z,38.14
2019-01-20T08:41:51.827Z,39.05
2019-01-20T08:44:24.723Z,38.68
2019-01-20T08:47:00.824Z,38.68
2019-01-20T08:49:28.864Z,37.84
2019-01-20T08:51:56.752Z,38.09
2019-01-20T09:17:26.785Z,37.84
2019-01-20T09:19:56.779Z,37.66
2019-01-20T09:22:24.799Z,37.66
2019-01-20T09:24:52.728Z,38.00
2019-01-20T09:27:20.739Z,37.78
2019-01-20T09:29:49.845Z,38.48
2019-01-20T09:32:17.786Z,39.24
2019-01-20T09:34:45.759Z,39.24
2019-01-20T09:47:37.372Z,38.63
2019-01-20T09:50:07.301Z,38.49
2019-01-20T09:52:35.767Z,37.99
2019-01-20T09:55:05.781Z,37.93
2019-01-20T09:57:34.780Z,38.53
2019-01-20T10:00:03.807Z,38.11
2019-01-20T10:02:31.734Z,39.02
2019-01-20T10:05:00.733Z,39.25
2019-01-20T10:07:29.368Z,39.25
2019-01-20T10:09:58.347Z,39.18
2019-01-20T10:12:27.367Z,39.21
2019-01-20T10:14:57.775Z,39.24
2019-01-20T10:17:25.783Z,38.36
2019-01-20T10:19:54.775Z,38.94
2019-01-20T10:22:22.731Z,40.15
2019-01-20T10:24:51.470Z,40.13
2019-01-20T10:27:20.502Z,39.57
2019-01-20T10:29:49.061Z,37.46
2019-01-20T10:32:18.759Z,30.08
2019-01-20T10:34:47.020Z,31.53
2019-01-20T10:37:15.768Z,29.55
2019-01-20T10:39:43.769Z,30.00
2019-01-20T10:42:29.773Z,31.55
2019-01-20T10:48:00.828Z,32.67
2019-01-20T10:50:28.777Z,33.02
2019-01-20T10:52:56.746Z,33.38
2019-01-20T10:55:24.765Z,33.46
2019-01-20T10:57:52.774Z,33.50
2019-01-20T11:00:26.052Z,34.03
2019-01-20T11:02:54.715Z,34.02
2019-01-20T11:05:24.577Z,34.02
2019-01-20T11:07:53.777Z,35.06
2019-01-20T11:10:22.743Z,35.06
2019-01-20T11:12:50.680Z,35.51
2019-01-20T11:15:19.762Z,36.09
2019-01-20T11:17:48.711Z,36.25
2019-01-20T11:22:59.829Z,36.50
2019-01-20T11:25:29.977Z,36.50
2019-01-20T11:27:58.771Z,36.39
2019-01-20T11:30:26.706Z,36.39
2019-01-20T11:32:54.715Z,36.12
2019-01-20T11:35:22.829Z,36.17
2019-01-20T11:37:50.784Z,36.12
2019-01-20T11:40:18.286Z,36.12
2019-01-20T11:42:53.776Z,36.91
2019-01-20T11:45:26.851Z,36.91
2019-01-20T11:47:55.710Z,37.72
2019-01-20T11:50:23.753Z,37.72
2019-01-20T11:52:51.781Z,38.09
2019-01-20T11:55:20.788Z,38.71
2019-01-20T11:57:49.340Z,37.93
2019-01-20T12:00:21.820Z,38.95
2019-01-20T12:02:49.967Z,38.80
2019-01-20T12:05:18.754Z,38.80
2019-01-20T12:07:46.769Z,38.72
2019-01-20T12:10:14.762Z,38.57
2019-01-20T12:12:45.306Z,38.11
2019-01-20T12:15:13.777Z,38.07
2019-01-20T12:17:42.297Z,38.03
2019-01-20T12:20:11.773Z,38.58
2019-01-20T12:22:39.774Z,38.29
2019-01-20T12:25:12.747Z,39.05
2019-01-20T12:27:41.050Z,38.94
2019-01-20T12:30:19.785Z,37.95
2019-01-20T12:32:47.757Z,38.14
2019-01-20T12:38:20.787Z,36.57
2019-01-20T12:40:48.765Z,36.59
2019-01-20T12:43:16.801Z,36.55
2019-01-20T12:45:47.755Z,37.29
2019-01-20T12:48:16.376Z,37.18
2019-01-20T12:50:44.759Z,37.32
2019-01-20T12:53:12.775Z,37.82
2019-01-20T12:55:40.779Z,37.98
2019-01-20T12:58:08.784Z,38.46
2019-01-20T13:00:37.343Z,38.17
2019-01-20T13:03:06.088Z,38.20
2019-01-20T13:05:35.341Z,37.91
2019-01-20T13:08:04.769Z,37.97
2019-01-20T13:10:33.366Z,37.67
2019-01-20T13:13:01.696Z,37.63
2019-01-20T13:15:29.764Z,37.51
2019-01-20T13:17:57.764Z,37.96
2019-01-20T13:20:25.683Z,37.65
2019-01-20T13:22:53.378Z,37.73
2019-01-20T13:25:30.122Z,38.33
2019-01-20T13:27:58.749Z,38.89
2019-01-20T13:30:27.252Z,38.87
2019-01-20T13:32:55.838Z,38.99
2019-01-20T13:35:23.822Z,38.38
2019-01-20T13:37:54.289Z,37.89
2019-01-20T13:40:33.803Z,37.75
2019-01-20T13:43:02.691Z,38.12
2019-01-20T13:45:30.683Z,38.12
2019-01-20T13:47:58.819Z,38.61
2019-01-20T13:50:27.759Z,38.73
2019-01-20T13:52:56.001Z,38.76
2019-01-20T13:55:24.872Z,38.56
2019-01-20T13:57:52.964Z,38.32
2019-01-20T14:00:22.823Z,38.44
2019-01-20T14:02:50.808Z,38.44
2019-01-20T14:05:19.775Z,38.20
2019-01-20T14:07:47.790Z,38.20
2019-01-20T14:10:17.106Z,38.04
2019-01-20T14:12:45.708Z,37.94
2019-01-20T14:15:13.842Z,37.84
2019-01-20T14:17:41.807Z,37.63
2019-01-20T14:20:14.872Z,37.63
2019-01-20T14:22:42.850Z,37.17
2019-01-20T14:25:12.070Z,37.17
2019-01-20T14:27:40.731Z,37.56
2019-01-20T14:30:12.364Z,37.56
2019-01-20T14:32:40.896Z,36.70
2019-01-20T14:35:08.791Z,36.69
2019-01-20T14:37:37.360Z,37.08
2019-01-20T14:40:06.863Z,37.34
2019-01-20T14:42:35.372Z,37.53
2019-01-20T14:45:05.791Z,37.53
2019-01-20T14:47:34.397Z,37.42
2019-01-20T14:50:05.772Z,37.34
2019-01-20T14:52:33.814Z,37.33
2019-01-20T14:55:02.905Z,37.36
2019-01-20T14:57:32.810Z,37.26
2019-01-20T15:00:02.406Z,36.57
2019-01-20T15:02:30.831Z,36.57
2019-01-20T15:05:00.364Z,36.88
2019-01-20T15:07:28.863Z,36.88
2019-01-20T15:09:56.793Z,36.45
2019-01-20T15:12:24.824Z,36.45
2019-01-20T15:14:53.813Z,36.07
2019-01-20T15:18:51.451Z,36.62
2019-01-20T15:21:19.444Z,36.60
2019-01-20T15:23:47.491Z,37.65
2019-01-20T15:26:14.884Z,36.83
2019-01-20T15:28:43.774Z,36.18
2019-01-20T15:31:12.098Z,36.18
2019-01-20T15:33:40.736Z,36.09
2019-01-20T15:36:09.790Z,36.15
2019-01-20T15:38:37.786Z,36.16
2019-01-20T15:41:06.366Z,36.02
2019-01-20T15:44:46.812Z,34.23
2019-01-20T15:47:14.236Z,34.02
2019-01-20T15:49:41.499Z,34.16
2019-01-20T15:52:09.381Z,34.56
2019-01-20T15:54:36.921Z,34.84
2019-01-20T15:57:04.791Z,36.05
2019-01-20T15:59:33.849Z,36.05
2019-01-20T16:02:01.731Z,36.16
2019-01-20T16:04:30.307Z,36.54
2019-01-20T16:06:59.374Z,36.58
2019-01-20T16:09:27.852Z,36.60
2019-01-20T16:11:55.867Z,37.02
2019-01-20T16:14:24.744Z,37.02
2019-01-20T16:16:53.061Z,37.75
2019-01-20T16:19:22.346Z,37.95
2019-01-20T16:21:50.800Z,37.95
2019-01-20T16:24:18.904Z,36.91
2019-01-20T16:26:47.707Z,38.25
2019-01-20T16:29:16.724Z,38.25
2019-01-20T16:31:44.820Z,37.56
2019-01-20T16:34:13.766Z,36.81
2019-01-20T16:36:43.808Z,37.08
2019-01-20T16:39:12.183Z,37.40
2019-01-20T16:41:40.735Z,37.94
2019-01-20T16:44:08.791Z,38.42
2019-01-20T16:46:37.068Z,37.14
2019-01-20T16:49:06.774Z,37.10
2019-01-20T16:51:35.768Z,37.10
2019-01-20T16:54:03.879Z,37.03
2019-01-20T16:56:31.854Z,37.11
2019-01-20T16:59:00.170Z,37.18
2019-01-20T17:01:28.780Z,37.18
2019-01-20T17:03:56.718Z,36.86
2019-01-20T17:06:25.432Z,37.58
2019-01-20T17:08:54.788Z,36.88
2019-01-20T17:11:22.743Z,35.14
2019-01-20T17:13:51.106Z,34.94
2019-01-20T17:16:19.857Z,36.46
2019-01-20T17:18:48.014Z,36.49
2019-01-20T17:21:17.769Z,36.41
2019-01-20T17:23:46.301Z,36.41
2019-01-20T17:26:14.794Z,36.56
2019-01-20T17:28:42.689Z,36.60
2019-01-20T17:35:40.548Z,36.68
2019-01-20T17:38:08.455Z,36.63
2019-01-20T17:40:35.795Z,37.84
2019-01-20T17:43:07.154Z,38.35
2019-01-20T17:45:46.877Z,38.88
2019-01-20T17:48:09.729Z,38.88
2019-01-20T17:50:39.816Z,38.67
2019-01-20T17:53:08.842Z,38.67
2019-01-20T17:55:36.960Z,38.71
2019-01-20T17:58:05.847Z,38.30
2019-01-20T18:00:36.775Z,39.20
2019-01-20T18:03:04.971Z,39.20
2019-01-20T18:05:33.781Z,40.70
2019-01-20T18:08:01.783Z,40.70
2019-01-20T18:10:29.921Z,41.01
2019-01-20T18:12:58.109Z,41.33
2019-01-20T18:15:27.499Z,41.33
2019-01-20T18:17:56.815Z,40.54
2019-01-20T18:20:28.394Z,41.73
2019-01-20T18:22:57.757Z,41.73
2019-01-20T18:25:26.629Z,40.14
2019-01-20T18:27:56.630Z,40.23
2019-01-20T18:30:26.393Z,39.02
2019-01-20T18:32:56.815Z,38.47
2019-01-20T18:35:25.808Z,38.10
2019-01-20T18:37:54.788Z,38.51
2019-01-20T18:40:25.651Z,38.51
2019-01-20T18:42:56.792Z,38.96
2019-01-20T18:45:27.588Z,38.96
2019-01-20T18:47:57.787Z,39.20
2019-01-20T18:50:30.777Z,39.32
2019-01-20T18:52:59.397Z,39.90
2019-01-20T18:55:30.381Z,40.31
2019-01-20T18:59:32.754Z,41.07
2019-01-20T19:02:00.649Z,40.73
2019-01-20T19:04:29.745Z,39.29
2019-01-20T19:06:57.673Z,39.32
2019-01-20T19:09:25.824Z,39.16
2019-01-20T19:11:54.443Z,39.93
2019-01-20T19:15:14.341Z,38.47
2019-01-20T19:17:42.812Z,38.83
2019-01-20T19:20:12.853Z,39.26
2019-01-20T19:22:40.774Z,39.77
2019-01-20T19:25:08.724Z,40.02
2019-01-20T19:27:37.818Z,39.67
2019-01-20T19:30:09.786Z,39.46
2019-01-20T19:32:37.768Z,39.46
2019-01-20T19:35:07.592Z,39.64
2019-01-20T19:39:51.898Z,40.65
2019-01-20T19:42:19.601Z,40.70
2019-01-20T19:44:47.388Z,40.70
2019-01-20T19:47:15.681Z,40.08
2019-01-20T19:49:45.762Z,41.08
2019-01-20T19:52:14.076Z,41.08
2019-01-20T19:54:42.767Z,39.30
2019-01-20T19:57:10.778Z,39.32
2019-01-20T19:59:39.718Z,38.93
2019-01-20T20:02:07.707Z,39.40
2019-01-20T20:04:35.822Z,39.59
2019-01-20T20:07:03.767Z,39.83
2019-01-20T20:09:31.785Z,39.88
2019-01-20T20:11:59.690Z,39.57
2019-01-20T20:14:27.757Z,39.50
2019-01-20T20:16:55.776Z,39.82
2019-01-20T20:19:25.345Z,39.67
2019-01-20T20:21:54.768Z,39.67
2019-01-20T20:24:25.453Z,39.96
2019-01-20T20:26:55.673Z,38.85
2019-01-20T20:29:23.708Z,38.85
2019-01-20T20:31:51.774Z,38.59
2019-01-20T20:34:21.962Z,38.05
2019-01-20T20:36:50.786Z,38.32
2019-01-20T20:39:26.728Z,39.20
2019-01-20T20:41:59.438Z,39.20
2019-01-20T20:44:28.380Z,39.66
2019-01-20T20:46:56.777Z,39.66
2019-01-20T20:49:24.779Z,39.50
2019-01-20T20:51:53.749Z,39.69
2019-01-20T20:54:22.782Z,39.72
2019-01-20T20:56:50.666Z,39.96
2019-01-20T20:59:19.767Z,39.87
2019-01-20T21:01:47.806Z,40.10
2019-01-20T21:04:15.790Z,39.54
2019-01-20T21:06:43.690Z,40.09
2019-01-20T21:09:11.795Z,38.79
2019-01-20T21:11:39.694Z,39.08
2019-01-20T21:14:07.548Z,38.56
2019-01-20T21:16:38.016Z,38.08
2019-01-20T21:21:48.244Z,40.68
2019-01-20T21:24:15.869Z,40.22
2019-01-20T21:26:44.625Z,38.86
2019-01-20T21:29:14.767Z,39.32
2019-01-20T21:31:44.338Z,39.11
2019-01-20T21:34:12.768Z,38.31
2019-01-20T21:36:40.790Z,38.31
2019-01-20T21:39:08.762Z,38.33
2019-01-20T21:41:36.760Z,38.11
2019-01-20T21:44:04.944Z,38.25
2019-01-20T21:46:33.401Z,37.50
2019-01-20T21:49:01.607Z,37.50
2019-01-20T21:51:29.779Z,37.51
2019-01-20T21:53:57.596Z,37.32
2019-01-20T21:56:25.817Z,38.16
2019-01-20T21:58:54.013Z,38.21
2019-01-20T22:01:22.346Z,38.86
2019-01-20T22:03:50.679Z,38.86
2019-01-20T22:06:19.657Z,38.64
2019-01-20T22:08:48.051Z,38.85
2019-01-20T22:11:17.738Z,38.55
2019-01-20T22:13:46.377Z,38.81
2019-01-20T22:17:08.644Z,37.81
2019-01-20T22:19:37.077Z,37.91
2019-01-20T22:22:06.097Z,38.48
2019-01-20T22:24:34.766Z,39.03
2019-01-20T22:29:45.750Z,39.26
2019-01-20T22:32:14.309Z,39.26
2019-01-20T22:34:42.808Z,39.12
2019-01-20T22:37:11.401Z,38.97
2019-01-20T22:39:41.630Z,39.24
2019-01-20T22:42:11.293Z,39.24
2019-01-20T22:44:40.793Z,38.50
2019-01-20T22:47:09.411Z,38.59
2019-01-20T22:49:38.729Z,38.77
2019-01-20T22:52:07.852Z,38.93
2019-01-20T22:54:37.619Z,40.23
2019-01-20T22:57:07.807Z,40.23
2019-01-20T22:59:37.406Z,41.23
2019-01-20T23:02:07.377Z,41.33
2019-01-20T23:04:37.719Z,41.13
2019-01-20T23:07:06.769Z,41.26
2019-01-20T23:09:35.827Z,40.35
2019-01-20T23:12:05.143Z,40.89
2019-01-20T23:14:34.417Z,40.89
2019-01-20T23:17:07.733Z,41.16
2019-01-20T23:19:34.727Z,41.02
2019-01-20T23:22:03.836Z,40.65
2019-01-20T23:24:32.627Z,40.13
2019-01-20T23:27:02.670Z,40.13
2019-01-20T23:29:31.603Z,40.30
2019-01-20T23:32:01.495Z,40.18
2019-01-20T23:36:53.776Z,40.70
2019-01-20T23:39:22.771Z,40.33
2019-01-20T23:41:52.134Z,40.35
2019-01-20T23:44:20.774Z,40.53
2019-01-20T23:48:06.289Z,40.01
2019-01-20T23:50:35.751Z,40.01
2019-01-20T23:53:04.771Z,40.15
2019-01-20T23:55:35.862Z,39.91
2019-01-20T23:58:04.344Z,40.48
